sensor_id;sensor_type;location;lat;lon;timestamp;pressure;altitude;pressure_sealevel;temperature;humidity
47366;BME280;33105;47.964;7.982;2023-08-07T17:39:58;97045.03;;;15.59;70.24
47366;BME280;33105;47.964;7.982;2023-08-07T17:43:00;97045.38;;;15.48;73.64
47366;BME280;33105;47.964;7.982;2023-08-07T17:46:14;97046.84;;;15.35;74.98
47366;BME280;33105;47.964;7.982;2023-08-07T17:49:16;97049.59;;;15.35;74.08
47366;BME280;33105;47.964;7.982;2023-08-07T17:52:17;97054.41;;;15.14;75.19
47366;BME280;33105;47.964;7.982;2023-08-07T17:55:26;97051.59;;;15.24;73.80
47366;BME280;33105;47.964;7.982;2023-08-07T17:58:27;97052.66;;;15.34;74.39
47366;BME280;33105;47.964;7.982;2023-08-07T18:01:54;97054.75;;;15.47;72.58
47366;BME280;33105;47.964;7.982;2023-08-07T18:04:55;97058.97;;;15.34;75.70
47366;BME280;33105;47.964;7.982;2023-08-07T18:08:15;97049.47;;;15.55;70.58
47366;BME280;33105;47.964;7.982;2023-08-07T18:11:48;97049.75;;;15.54;71.16
47366;BME280;33105;47.964;7.982;2023-08-07T18:15:17;97051.97;;;15.57;69.87
47366;BME280;33105;47.964;7.982;2023-08-07T18:18:53;97050.66;;;15.39;71.01
47366;BME280;33105;47.964;7.982;2023-08-07T18:22:07;97050.88;;;15.09;77.47
47366;BME280;33105;47.964;7.982;2023-08-07T18:25:36;97052.13;;;14.77;78.26
47366;BME280;33105;47.964;7.982;2023-08-07T18:28:38;97052.75;;;14.59;79.50
47366;BME280;33105;47.964;7.982;2023-08-07T18:32:32;97051.66;;;14.55;82.50
47366;BME280;33105;47.964;7.982;2023-08-07T18:35:47;97050.00;;;14.54;81.78
47366;BME280;33105;47.964;7.982;2023-08-07T18:40:23;97053.31;;;14.46;82.48
47366;BME280;33105;47.964;7.982;2023-08-07T18:44:19;97056.63;;;14.48;82.74
47366;BME280;33105;47.964;7.982;2023-08-07T18:47:43;97054.41;;;14.50;84.25
47366;BME280;33105;47.964;7.982;2023-08-07T18:51:27;97056.06;;;14.41;84.09
47366;BME280;33105;47.964;7.982;2023-08-07T18:54:31;97059.38;;;14.43;83.25
47366;BME280;33105;47.964;7.982;2023-08-07T18:58:35;97061.56;;;14.36;85.77
47366;BME280;33105;47.964;7.982;2023-08-07T19:01:56;97067.09;;;14.30;85.59
47366;BME280;33105;47.964;7.982;2023-08-07T19:08:43;97064.34;;;14.20;84.72
47366;BME280;33105;47.964;7.982;2023-08-07T19:16:20;97069.00;;;14.30;84.51
47366;BME280;33105;47.964;7.982;2023-08-07T19:19:45;97068.47;;;14.13;85.93
47366;BME280;33105;47.964;7.982;2023-08-07T19:23:19;97070.38;;;14.12;84.61
47366;BME280;33105;47.964;7.982;2023-08-07T19:27:21;97064.94;;;14.07;83.51
47366;BME280;33105;47.964;7.982;2023-08-07T19:31:07;97064.09;;;14.02;85.46
47366;BME280;33105;47.964;7.982;2023-08-07T19:34:46;97065.47;;;13.89;86.41
47366;BME280;33105;47.964;7.982;2023-08-07T19:37:56;97073.72;;;13.79;85.89
47366;BME280;33105;47.964;7.982;2023-08-07T19:41:15;97077.56;;;13.73;85.45
47366;BME280;33105;47.964;7.982;2023-08-07T19:44:52;97075.38;;;13.70;86.55
47366;BME280;33105;47.964;7.982;2023-08-07T19:51:54;97078.94;;;13.50;87.55
47366;BME280;33105;47.964;7.982;2023-08-07T19:55:05;97075.88;;;13.41;87.48
47366;BME280;33105;47.964;7.982;2023-08-07T19:58:26;97080.00;;;13.34;87.66
47366;BME280;33105;47.964;7.982;2023-08-07T20:01:49;97074.78;;;13.42;86.79
47366;BME280;33105;47.964;7.982;2023-08-07T20:05:15;97074.25;;;13.50;85.75
47366;BME280;33105;47.964;7.982;2023-08-07T20:08:34;97071.78;;;13.44;85.29
47366;BME280;33105;47.964;7.982;2023-08-07T20:11:53;97074.75;;;13.22;88.00
47366;BME280;33105;47.964;7.982;2023-08-07T20:15:10;97081.81;;;13.13;88.79
47366;BME280;33105;47.964;7.982;2023-08-07T20:18:26;97083.19;;;13.05;88.12
47366;BME280;33105;47.964;7.982;2023-08-07T20:21:44;97090.59;;;13.05;88.90
47366;BME280;33105;47.964;7.982;2023-08-07T20:25:13;97093.34;;;13.05;88.33
47366;BME280;33105;47.964;7.982;2023-08-07T20:28:42;97083.22;;;13.10;87.51
47366;BME280;33105;47.964;7.982;2023-08-07T20:32:11;97092.53;;;13.09;87.68
47366;BME280;33105;47.964;7.982;2023-08-07T20:35:22;97089.72;;;12.94;89.51
47366;BME280;33105;47.964;7.982;2023-08-07T20:38:45;97089.97;;;12.87;89.54
47366;BME280;33105;47.964;7.982;2023-08-07T20:41:50;97088.56;;;12.75;90.09
47366;BME280;33105;47.964;7.982;2023-08-07T20:44:51;97090.97;;;12.66;90.67
47366;BME280;33105;47.964;7.982;2023-08-07T20:48:02;97089.84;;;12.62;90.66
47366;BME280;33105;47.964;7.982;2023-08-07T20:51:07;97089.06;;;12.67;91.08
47366;BME280;33105;47.964;7.982;2023-08-07T20:54:21;97092.91;;;12.71;89.88
47366;BME280;33105;47.964;7.982;2023-08-07T20:57:28;97098.63;;;12.64;90.51
47366;BME280;33105;47.964;7.982;2023-08-07T21:00:33;97087.13;;;12.62;92.02
47366;BME280;33105;47.964;7.982;2023-08-07T21:07:50;97085.72;;;12.54;90.17
47366;BME280;33105;47.964;7.982;2023-08-07T21:11:19;97085.19;;;12.63;90.09
47366;BME280;33105;47.964;7.982;2023-08-07T21:14:37;97085.75;;;12.65;88.08
47366;BME280;33105;47.964;7.982;2023-08-07T21:18:13;97082.75;;;12.66;87.76
47366;BME280;33105;47.964;7.982;2023-08-07T21:21:14;97091.28;;;12.70;86.75
47366;BME280;33105;47.964;7.982;2023-08-07T21:24:18;97084.28;;;12.42;86.84
47366;BME280;33105;47.964;7.982;2023-08-07T21:27:19;97072.53;;;12.46;88.21
47366;BME280;33105;47.964;7.982;2023-08-07T21:30:22;97063.47;;;12.46;88.62
47366;BME280;33105;47.964;7.982;2023-08-07T21:33:24;97070.63;;;12.52;90.04
47366;BME280;33105;47.964;7.982;2023-08-07T21:36:35;97071.19;;;12.54;88.95
47366;BME280;33105;47.964;7.982;2023-08-07T21:40:01;97072.19;;;12.38;89.28
47366;BME280;33105;47.964;7.982;2023-08-07T21:43:02;97063.72;;;12.39;90.54
47366;BME280;33105;47.964;7.982;2023-08-07T21:46:22;97060.22;;;12.49;90.48
47366;BME280;33105;47.964;7.982;2023-08-07T21:49:32;97055.56;;;12.49;88.29
47366;BME280;33105;47.964;7.982;2023-08-07T21:52:38;97057.97;;;12.36;89.36
47366;BME280;33105;47.964;7.982;2023-08-07T21:55:42;97051.38;;;12.37;89.75
47366;BME280;33105;47.964;7.982;2023-08-07T21:58:53;97052.94;;;12.22;89.73
47366;BME280;33105;47.964;7.982;2023-08-07T22:02:04;97044.13;;;12.10;88.98
47366;BME280;33105;47.964;7.982;2023-08-07T22:05:09;97048.31;;;12.28;89.81
47366;BME280;33105;47.964;7.982;2023-08-07T22:08:16;97040.84;;;12.18;89.87
47366;BME280;33105;47.964;7.982;2023-08-07T22:11:26;97043.03;;;12.16;90.47
47366;BME280;33105;47.964;7.982;2023-08-07T22:14:30;97043.84;;;12.17;90.45
47366;BME280;33105;47.964;7.982;2023-08-07T22:17:32;97040.28;;;12.11;90.23
47366;BME280;33105;47.964;7.982;2023-08-07T22:20:33;97032.56;;;12.03;89.70
47366;BME280;33105;47.964;7.982;2023-08-07T22:23:35;97037.47;;;12.01;90.26
47366;BME280;33105;47.964;7.982;2023-08-07T22:26:36;97032.81;;;12.02;90.93
47366;BME280;33105;47.964;7.982;2023-08-07T22:29:40;97031.44;;;11.99;89.86
47366;BME280;33105;47.964;7.982;2023-08-07T22:32:44;97029.22;;;11.96;90.73
47366;BME280;33105;47.964;7.982;2023-08-07T22:35:46;97021.53;;;11.93;90.17
47366;BME280;33105;47.964;7.982;2023-08-07T22:38:47;97020.97;;;11.91;90.32
47366;BME280;33105;47.964;7.982;2023-08-07T22:41:49;97022.31;;;11.83;90.42
47366;BME280;33105;47.964;7.982;2023-08-07T22:44:50;97019.84;;;11.82;91.29
47366;BME280;33105;47.964;7.982;2023-08-07T22:47:51;97029.13;;;11.81;90.86
47366;BME280;33105;47.964;7.982;2023-08-07T22:50:53;97018.91;;;11.71;91.06
47366;BME280;33105;47.964;7.982;2023-08-07T22:53:54;97027.88;;;11.67;90.65
47366;BME280;33105;47.964;7.982;2023-08-07T22:56:56;97027.38;;;11.70;90.41
47366;BME280;33105;47.964;7.982;2023-08-07T23:00:01;97021.88;;;11.70;91.17
47366;BME280;33105;47.964;7.982;2023-08-07T23:03:03;97014.88;;;11.79;91.01
47366;BME280;33105;47.964;7.982;2023-08-07T23:06:13;97016.09;;;11.98;88.55
47366;BME280;33105;47.964;7.982;2023-08-07T23:09:17;97012.72;;;11.81;90.41
47366;BME280;33105;47.964;7.982;2023-08-07T23:12:20;97007.50;;;11.79;90.01
47366;BME280;33105;47.964;7.982;2023-08-07T23:15:22;97014.25;;;11.72;90.79
47366;BME280;33105;47.964;7.982;2023-08-07T23:18:23;97012.56;;;11.66;90.78
47366;BME280;33105;47.964;7.982;2023-08-07T23:21:25;97011.97;;;11.58;91.32
47366;BME280;33105;47.964;7.982;2023-08-07T23:24:26;97010.84;;;11.54;90.76
47366;BME280;33105;47.964;7.982;2023-08-07T23:27:28;97006.75;;;11.57;91.35
47366;BME280;33105;47.964;7.982;2023-08-07T23:30:29;97010.88;;;11.59;90.33
47366;BME280;33105;47.964;7.982;2023-08-07T23:33:30;96999.44;;;11.63;89.32
47366;BME280;33105;47.964;7.982;2023-08-07T23:36:32;96994.94;;;11.51;90.38
47366;BME280;33105;47.964;7.982;2023-08-07T23:39:33;96994.72;;;11.58;90.14
47366;BME280;33105;47.964;7.982;2023-08-07T23:42:35;96981.44;;;11.40;91.62
47366;BME280;33105;47.964;7.982;2023-08-07T23:45:36;96975.19;;;11.44;92.41
47366;BME280;33105;47.964;7.982;2023-08-07T23:48:38;96981.84;;;11.53;92.22
47366;BME280;33105;47.964;7.982;2023-08-07T23:51:40;96970.41;;;11.62;90.10
47366;BME280;33105;47.964;7.982;2023-08-07T23:54:41;96962.72;;;11.58;89.77
47366;BME280;33105;47.964;7.982;2023-08-07T23:57:43;96967.69;;;11.67;88.67
